SureTrader Stock Hero Advertisement SureTrader SPDR Advertisement

Recent Stock News

SymbolQuoteChangeChg%  HeadlineTime
PUB 0.0000 0.0000 0.00%  Publicis Groupe: Press Release 5/25/2015 3:08:37 PM
PLZ.UN Plaza Retail REIT announces appointments 5/25/2015 2:55:00 PM
GE 27.6800 -0.0400 -0.14%  The Solution to Iran's Aggressive Persian Gulf Policy 5/25/2015 2:09:02 PM
GFF 16.1600 -0.1200 -0.74%  The Solution to Iran's Aggressive Persian Gulf Policy 5/25/2015 2:09:02 PM
UTX 118.6200 -0.5000 -0.42%  The Solution to Iran's Aggressive Persian Gulf Policy 5/25/2015 2:09:02 PM
PBH.DB.A Suspension de la négociation par l'OCRCVM - PBH.DB.A 5/25/2015 1:16:00 PM
PBH.DB.A IIROC Trading Halt - PBH.DB.A 5/25/2015 1:15:00 PM
HII 122.8600 -0.2700 -0.22%  The Navy's Most Expensive Aircraft Carrier Ever Just Got Even More Expensive 5/25/2015 1:09:02 PM
KSS 66.1000 0.1900 0.29%  This Dividend Stock’s 13% Plunge After Earnings Is Ridiculous 5/25/2015 1:04:02 PM
CM 77.6200 -0.7200 -0.92%  Avis aux médias mis à jour - La Banque CIBC annoncera ses résultats du deuxième trimestre le 28 mai 2015 5/25/2015 1:00:00 PM
CM 77.6200 -0.7200 -0.92%  Avis aux médias mis à jour - La Banque CIBC annoncera ses résultats du deuxième trimestre le 28 mai 2015 5/25/2015 1:00:00 PM
CM 77.6200 -0.7200 -0.92%  Updated Media Advisory - CIBC to Announce Second Quarter 2015 Results on May 28, 2015 5/25/2015 12:59:00 PM
CM 77.6200 -0.7200 -0.92%  Updated Media Advisory - CIBC to Announce Second Quarter 2015 Results on May 28, 2015 5/25/2015 12:59:00 PM
AMZN 427.6400 -3.9900 -0.92%  The Most Hated Company in the Retail Industry 5/25/2015 12:35:03 PM
WMT 75.8600 -0.2500 -0.33%  The Most Hated Company in the Retail Industry 5/25/2015 12:35:03 PM
EDR 33.2700 0.1600 0.48%  5 Top Silver Stocks Under $10 5/25/2015 12:13:31 PM
AMZN 427.6400 -3.9900 -0.92%  Can eBay or Wal-Mart Compete With Amazon Prime? 5/25/2015 12:10:03 PM
EBAY 59.7200 -0.0200 -0.03%  Can eBay or Wal-Mart Compete With Amazon Prime? 5/25/2015 12:10:03 PM
WMT 75.8600 -0.2500 -0.33%  Can eBay or Wal-Mart Compete With Amazon Prime? 5/25/2015 12:10:03 PM
XAU 0.0000 0.0000 0.00%  L'OCRCVM permet la reprise de la négociation - XAU 5/25/2015 12:09:00 PM
XAU 0.0000 0.0000 0.00%  IIROC Trading Resumption - XAU 5/25/2015 12:08:00 PM
AVE 0.0000 0.0000 0.00%  L'OCRCVM permet la reprise de la négociation - AVE 5/25/2015 12:01:00 PM
AVE 0.0000 0.0000 0.00%  IIROC Trading Resumption - AVE 5/25/2015 11:59:00 AM
MRY.P Mira IV Acquisition Corp. announces filing of filing statement 5/25/2015 11:44:00 AM
CISG 8.4900 0.1100 1.31%  CNinsure to Attend Upcoming Investor Conferences 5/25/2015 11:39:48 AM
CRM 75.0100 2.1000 2.88%  3 Reasons Salesforce.com Inc. Stock Could Rise 5/25/2015 11:10:10 AM
SAP 74.7100 -1.0900 -1.44%  3 Reasons Salesforce.com Inc. Stock Could Rise 5/25/2015 11:10:10 AM
DGI 31.5700 -0.3400 -1.07%  L'OCRCVM permet la reprise de la négociation - DGI 5/25/2015 10:44:00 AM
DGI 31.5700 -0.3400 -1.07%  IIROC Trade Resumption - DGI 5/25/2015 10:43:00 AM
CM 77.6200 -0.7200 -0.92%  CIBC Asset Management announces changes to its fund line-up 5/25/2015 10:30:00 AM
CM 77.6200 -0.7200 -0.92%  CIBC Asset Management announces changes to its fund line-up 5/25/2015 10:30:00 AM
CM 77.6200 -0.7200 -0.92%  Gestion d'actifs CIBC annonce des changements à sa gamme de fonds 5/25/2015 10:30:00 AM
CM 77.6200 -0.7200 -0.92%  Gestion d'actifs CIBC annonce des changements à sa gamme de fonds 5/25/2015 10:30:00 AM
DGI 31.5700 -0.3400 -1.07%  Data Group Announces Cancellation Of Rights Offering And Updated Outlook 5/25/2015 10:27:00 AM
MSFT 46.9000 -0.5200 -1.10%  Microsoft's Windows 10 And The Internet Of Things: What You Need to Know 5/25/2015 10:05:03 AM
DHX.A Temple Street Productions and DHX Television Announce Principal Photography on New Tween Drama The Music Room (Working Title) 5/25/2015 10:00:00 AM
DHX.B Temple Street Productions and DHX Television Announce Principal Photography on New Tween Drama The Music Room (Working Title) 5/25/2015 10:00:00 AM
LUV 36.8600 -0.3700 -0.99%  Southwest Airlines Honors Fallen Soldiers On Memorial Day And Pays Tribute To Our Nation's Greatest Generation 5/25/2015 10:00:00 AM
GZT 12.4300 -0.1800 -1.43%  Gazit-Globe in a Major, Strategic Transaction: Acquires Norway's Sektor Through Its Subsidiary, Citycon, for EUR 1.47 Billion 5/25/2015 9:58:43 AM
DGS 46.5300 -0.2800 -0.60%  L'OCRCVM permet la reprise de la négociation - GZT ; DGS 5/25/2015 9:55:00 AM
GZT 12.4300 -0.1800 -1.43%  L'OCRCVM permet la reprise de la négociation - GZT ; DGS 5/25/2015 9:55:00 AM
DGS 46.5300 -0.2800 -0.60%  IIROC Trade Resumption - GZT; DGS 5/25/2015 9:53:00 AM
GZT 12.4300 -0.1800 -1.43%  IIROC Trade Resumption - GZT; DGS 5/25/2015 9:53:00 AM
MYL 69.6700 -0.2700 -0.39%  Mylan/Perrigo Clarification 5/25/2015 9:47:00 AM
PRGO 198.4700 0.2100 0.11%  Mylan/Perrigo Clarification 5/25/2015 9:47:00 AM
XAU 0.0000 0.0000 0.00%  Suspension de la négociation par l'OCRCVM - XAU 5/25/2015 9:42:00 AM
BMY 68.3000 -0.5900 -0.86%  5 Reasons Your Health Insurance Premium Will Likely Rise in 2016 5/25/2015 9:41:03 AM
MRK 59.3800 -0.7200 -1.20%  5 Reasons Your Health Insurance Premium Will Likely Rise in 2016 5/25/2015 9:41:03 AM
DGS 46.5300 -0.2800 -0.60%  Suspension de la négociation par l'OCRCVM - DGS 5/25/2015 9:40:00 AM
XAU 0.0000 0.0000 0.00%  IIROC Trading Halt - XAU 5/25/2015 9:40:00 AM
DGS 46.5300 -0.2800 -0.60%  IIROC Trading Halt - DGS 5/25/2015 9:39:00 AM
GZT 12.4300 -0.1800 -1.43%  Gazit-Globe in a Major, Strategic Transaction: Acquires Norway's Sektor Through Its Subsidiary, Citycon, for EUR 1.47 Billion... 5/25/2015 9:36:12 AM
GZT 12.4300 -0.1800 -1.43%  Gazit-Globe in a Major, Strategic Transaction: Acquires Norway's Sektor Through Its Subsidiary, Citycon, for EUR 1.47 Billion... 5/25/2015 9:36:12 AM
GZT 12.4300 -0.1800 -1.43%  Gazit-Globe in a Major, Strategic Transaction: Acquires Norway's Sektor Through Its Subsidiary, Citycon, for EUR 1.47 Billion... 5/25/2015 9:36:12 AM
FB 80.5400 0.0600 0.07%  Google, Inc.'s Worst Nightmare Is Coming True 5/25/2015 9:36:02 AM
GOOG 540.1600 -2.3500 -0.43%  Google, Inc.'s Worst Nightmare Is Coming True 5/25/2015 9:36:02 AM
GOOGL 554.7900 -2.0200 -0.36%  Google, Inc.'s Worst Nightmare Is Coming True 5/25/2015 9:36:02 AM
MSFT 46.9000 -0.5200 -1.10%  Google, Inc.'s Worst Nightmare Is Coming True 5/25/2015 9:36:02 AM
DGI 31.5700 -0.3400 -1.07%  Suspension de la négociation par l'OCRCVM - DGI 5/25/2015 9:30:00 AM
DGI 31.5700 -0.3400 -1.07%  IIROC Trading Halt - DGI 5/25/2015 9:29:00 AM
AAPL 132.5500 1.1600 0.88%  Costco Wholesale Corporation: The Best Business Model in Retail 5/25/2015 9:25:03 AM
COST 143.6900 -0.2500 -0.17%  Costco Wholesale Corporation: The Best Business Model in Retail 5/25/2015 9:25:03 AM
TGT 79.2900 -0.1000 -0.13%  Costco Wholesale Corporation: The Best Business Model in Retail 5/25/2015 9:25:03 AM
WMT 75.8600 -0.2500 -0.33%  Costco Wholesale Corporation: The Best Business Model in Retail 5/25/2015 9:25:03 AM
BA 144.8100 -2.5400 -1.72%  Sikorsky Is for Sale -- but Can Anyone Afford It? 5/25/2015 9:13:02 AM
EADSY 17.4900 -0.2900 -1.63%  Sikorsky Is for Sale -- but Can Anyone Afford It? 5/25/2015 9:13:02 AM
LMT 192.8600 -0.2500 -0.13%  Sikorsky Is for Sale -- but Can Anyone Afford It? 5/25/2015 9:13:02 AM
TXT 46.3500 -0.1600 -0.34%  Sikorsky Is for Sale -- but Can Anyone Afford It? 5/25/2015 9:13:02 AM
UTX 118.6200 -0.5000 -0.42%  Sikorsky Is for Sale -- but Can Anyone Afford It? 5/25/2015 9:13:02 AM
AAPL 132.5500 1.1600 0.88%  2 Upcoming Moves That Could Revitalize Apple Inc.'s iPad Business 5/25/2015 9:10:02 AM
MSFT 46.9000 -0.5200 -1.10%  2 Upcoming Moves That Could Revitalize Apple Inc.'s iPad Business 5/25/2015 9:10:02 AM
PBH 43.6400 -0.0400 -0.09%  Attention Dividend Investors: 3 Stocks With Yields Over 4% to Buy Today 5/25/2015 9:07:08 AM
GZT 12.4300 -0.1800 -1.43%  Suspension de la négociation par l'OCRCVM - GZT 5/25/2015 9:02:00 AM
GZT 12.4300 -0.1800 -1.43%  IIROC Trading Halt - GZT 5/25/2015 9:01:00 AM
KMI 42.6900 0.0300 0.07%  The Best Business Model in Energy 5/25/2015 9:00:03 AM
CNTY 6.0850 -0.0150 -0.25%  Century Casinos Opens Three Additional Casinos on Cruise Ships 5/25/2015 9:00:00 AM
CNTY 6.0850 -0.0150 -0.25%  Century Casinos Opens Three Additional Casinos on Cruise Ships 5/25/2015 9:00:00 AM
CNTY 6.0850 -0.0150 -0.25%  Century Casinos Opens Three Additional Casinos on Cruise Ships 5/25/2015 9:00:00 AM
SSE 6.0400 -0.0900 -1.47%  Seventy Seven Energy Inc. Announces Sale of Hodges Trucking Company, L.L.C. 5/25/2015 9:00:00 AM
WMT 75.8600 -0.2500 -0.33%  5 Things to Know About Wal-Mart Stores Inc.'s Earnings Miss 5/25/2015 8:45:03 AM
AAPL 132.5500 1.1600 0.88%  Will Starbucks and Spotify Ruin Apple’s Music Ambitions? 5/25/2015 8:31:03 AM
SBUX 51.5000 0.1700 0.33%  Will Starbucks and Spotify Ruin Apple’s Music Ambitions? 5/25/2015 8:31:03 AM
CCS.PR.C Co-operators lance une assurance inondation en Alberta 5/25/2015 8:30:00 AM
CCS.PR.C The Co-operators launches flood insurance in Alberta 5/25/2015 8:30:00 AM
PWE 2.0700 -0.0300 -1.43%  Penn West Announces Finalization of Amending Agreements with its Lenders 5/25/2015 8:30:00 AM
PWE 2.0700 -0.0300 -1.43%  Penn West Announces Finalization of Amending Agreements with its Lenders 5/25/2015 8:30:00 AM
PWT 0.0000 0.0000 0.00%  Penn West Announces Finalization of Amending Agreements with its Lenders 5/25/2015 8:30:00 AM
PWT 0.0000 0.0000 0.00%  Penn West Announces Finalization of Amending Agreements with its Lenders 5/25/2015 8:30:00 AM
SGQ TSX Delisting Review - SouthGobi Resources Ltd. (Symbol: SGQ) 5/25/2015 8:30:00 AM
CKI 0.0000 0.0000 0.00%  Clarke Announces Renewal of Normal Course Issuer Bid 5/25/2015 8:28:00 AM
CKI.DB.A Clarke Announces Renewal of Normal Course Issuer Bid 5/25/2015 8:28:00 AM
XAU 0.0000 0.0000 0.00%  L'OCRCVM permet la reprise de la négociation - XAU 5/25/2015 8:22:00 AM
XAU 0.0000 0.0000 0.00%  IIROC Trading Resumption - XAU 5/25/2015 8:21:00 AM
STAR 14.3300 -0.1300 -0.90%  Starbreeze AB: Beslutsunderlag inför extra bolagsstämma i Starbreeze finns nu tillgängliga 5/25/2015 8:12:48 AM
AVE 0.0000 0.0000 0.00%  Suspension de la négociation par l'OCRCVM - FVR; AVE 5/25/2015 8:12:00 AM
FVR Suspension de la négociation par l'OCRCVM - FVR; AVE 5/25/2015 8:12:00 AM
AVE 0.0000 0.0000 0.00%  IIROC Trading Halt - FVR; AVE 5/25/2015 8:09:00 AM
FVR IIROC Trading Halt - FVR; AVE 5/25/2015 8:09:00 AM
TLV1V Voting report relating to Talvivaara's draft restructuring programme submitted to the District Court 5/25/2015 8:06:39 AM
AMGN 163.5900 -0.2500 -0.15%  The Best Business Model in Biotech 5/25/2015 8:05:02 AM
1234Next >Last >>
* Market data is delayed 15-20 minutes and is updated once per minute.
* Stocks with news within the last 24 hours